Terminal Aerodrome Forecast
Issued by NWS

Home | Current Version | Previous Version | Text Only | Print | Product List | Glossary On
Versions: 1 2 3 4 5 6 7 8 9 10 11 12 13 14 15 16 17 18 19 20 21 22 23
000
FTUS44 KLZK 300800 AAA
TAFLIT
TAF AMD
KLIT 300845Z 3009/3106 20007KT P6SM -RA BKN025 OVC050
     FM301000 23007KT P6SM VCSH BKN015 OVC040
     FM301500 30010KT P6SM VCSH BKN025 OVC050
     FM301800 30010KT P6SM VCSH SCT030 BKN050 OVC250=

USA.gov is the U.S. government's official web portal to all federal, state and local government web resources and services.